Préparation du vol

Réserver un ULM chez EFU                     Découvrir nos appareils                     Coordonnées de l'école

Available data for LFPN from the past hour

METAR
LFPN 230930Z AUTO 29012KT 2000 -SN BR BKN006 OVC011 00/M00 Q0995 TEMPO -TSSN BKN003 BKN025CB
LFPN 230900Z AUTO 29013KT 0900 R25R/1300U SN FG BKN005/// BKN009/// BKN013/// ///TCU 00/M00 Q0995 TEMPO 1500 SHSN BKN003 BKN025CB
TAF
TAF AMD LFPN 230925Z 2309/2318 27008KT 9999 SCT004 TEMPO 2309/2318 0800 SHSN FG BKN003 BKN025CB PROB30 TEMPO 2309/2315 -TSSN

Pour avoir des informations détaillée sur la météo à venir vous pouvez consulter Aeroweb

prevision des pluies

Nota : Heuro locale = heure CET

[table “3” not found /]

OLIVIA

Outil en Ligne Intégré de Visualisation d'Informations Aéronautiques

OLIVIA